Main page
METAR-TAF:

METAR-TAF

Airports :

Ivalo Airport

Ivalo, Finland

latitude: 68-37N, longitude: 027-25E, elevation: 147 m

Current weather observation

The report was made 36 minutes ago, at 01:50 UTC
Wind 1 kt from variable directions
Temperature -15°C
Humidity 85%
Pressure 978 hPa
Visibility 10 km or more
no clouds below 1500 m and no cumulonimbus

METAR: EFIV 090150Z AUTO VRB01KT CAVOK M15/M17 Q0978

Time: 04:26 (02:26 UTC)

Forecast

The report was made 8 hours and 55 minutes ago, at 17:31 UTC
Forecast valid from 08 at 18 UTC to 08 at 21 UTC
Wind 6 kt from the Southwest
Visibility 10 km or more
Broken clouds at a height of 2000 ft
Temporary
from 08 at 18 UTC to 08 at 21 UTC
Visibility: 6000 m
Broken clouds at a height of 1300 ft
light snow

TAF: EFIV 081731Z 0818/0821 23006KT 9999 BKN020 TEMPO 0818/0821 6000 -SN BKN013

Weather observations and forecasts of more than 4000 airports (METAR and TAF reports).

The available stations are represented by yellow and red dots on the map.

Hover mouse over dot to see the name of the station.

Then click to see weather observations and forecasts.

To change the map : click on the green buttons with a black cross to zoom in, on the green button with a dash to zoom out, or on the green arrows for adjacent maps.


METAR-TAF: